createdAt,value
2017-10-22T00:01:18.486Z,85.80
2017-10-22T00:03:45.949Z,84.94
2017-10-22T00:06:13.437Z,85.57
2017-10-22T00:08:40.896Z,85.06
2017-10-22T00:11:08.476Z,85.15
2017-10-22T00:13:35.931Z,85.57
2017-10-22T00:16:03.438Z,85.57
2017-10-22T00:18:30.900Z,85.44
2017-10-22T00:20:58.390Z,85.31
2017-10-22T00:23:25.841Z,84.84
2017-10-22T00:25:53.321Z,85.60
2017-10-22T00:28:20.873Z,84.90
2017-10-22T00:30:48.352Z,85.23
2017-10-22T00:33:15.830Z,85.39
2017-10-22T00:35:43.307Z,85.91
2017-10-22T00:38:17.495Z,85.96
2017-10-22T00:40:44.977Z,85.95
2017-10-22T00:43:12.440Z,85.32
2017-10-22T00:45:39.933Z,85.51
2017-10-22T00:48:07.396Z,84.62
2017-10-22T00:50:34.852Z,84.25
2017-10-22T00:53:02.397Z,84.58
2017-10-22T00:55:29.967Z,85.38
2017-10-22T00:57:57.473Z,85.05
2017-10-22T01:00:24.939Z,84.95
2017-10-22T01:02:52.434Z,83.93
2017-10-22T01:05:19.888Z,84.19
2017-10-22T01:07:47.359Z,83.95
2017-10-22T01:10:14.904Z,83.96
2017-10-22T01:12:42.380Z,84.20
2017-10-22T01:15:09.909Z,84.13
2017-10-22T01:17:37.468Z,84.21
2017-10-22T01:20:04.930Z,83.61
2017-10-22T01:22:32.418Z,83.57
2017-10-22T01:24:59.944Z,83.81
2017-10-22T01:27:27.428Z,83.41
2017-10-22T01:29:54.905Z,83.85
2017-10-22T01:32:22.427Z,84.03
2017-10-22T01:34:49.973Z,83.71
2017-10-22T01:37:17.460Z,83.92
2017-10-22T01:39:44.917Z,83.19
2017-10-22T01:42:12.390Z,84.17
2017-10-22T01:44:39.917Z,84.55
2017-10-22T01:47:07.462Z,84.64
2017-10-22T01:49:35.030Z,83.81
2017-10-22T01:52:02.525Z,83.97
2017-10-22T01:54:29.986Z,83.81
2017-10-22T01:56:57.496Z,83.32
2017-10-22T01:59:24.949Z,82.90
2017-10-22T02:01:52.436Z,82.01
2017-10-22T02:04:19.986Z,81.74
2017-10-22T02:06:47.522Z,82.44
2017-10-22T02:09:15.027Z,82.12
2017-10-22T02:11:42.507Z,82.61
2017-10-22T02:14:10.001Z,82.41
2017-10-22T02:16:37.464Z,81.86
2017-10-22T02:19:04.974Z,81.32
2017-10-22T02:21:32.428Z,82.45
2017-10-22T02:23:59.916Z,81.77
2017-10-22T02:26:27.375Z,82.33
2017-10-22T02:28:54.859Z,82.21
2017-10-22T02:31:22.321Z,81.09
2017-10-22T02:33:49.830Z,80.78
2017-10-22T02:36:17.289Z,80.93
2017-10-22T02:38:44.805Z,79.47
2017-10-22T02:41:12.272Z,80.06
2017-10-22T02:43:39.741Z,79.18
2017-10-22T02:46:07.209Z,79.87
2017-10-22T02:48:34.797Z,79.82
2017-10-22T02:51:02.347Z,80.17
2017-10-22T02:53:29.829Z,80.17
2017-10-22T02:55:57.307Z,79.51
2017-10-22T02:58:24.788Z,80.24
2017-10-22T03:00:52.253Z,79.75
2017-10-22T03:03:19.737Z,79.75
2017-10-22T03:05:47.222Z,79.00
2017-10-22T03:08:14.700Z,78.22
2017-10-22T03:10:42.177Z,78.02
2017-10-22T03:13:09.694Z,78.32
2017-10-22T03:15:37.153Z,78.30
2017-10-22T03:18:04.677Z,78.42
2017-10-22T03:20:32.205Z,78.16
2017-10-22T03:22:59.687Z,78.60
2017-10-22T03:25:27.140Z,78.69
2017-10-22T03:27:54.618Z,78.53
2017-10-22T03:30:22.086Z,78.23
2017-10-22T03:32:49.615Z,78.73
2017-10-22T03:35:17.072Z,79.28
2017-10-22T03:37:44.571Z,79.45
2017-10-22T03:40:12.024Z,78.87
2017-10-22T03:42:39.556Z,79.31
2017-10-22T03:45:07.113Z,79.21
2017-10-22T03:47:34.573Z,79.36
2017-10-22T03:50:02.062Z,79.21
2017-10-22T03:52:29.533Z,79.11
2017-10-22T03:54:57.008Z,79.24
2017-10-22T03:57:24.481Z,79.04
2017-10-22T03:59:51.965Z,79.50
2017-10-22T04:02:19.436Z,79.62
2017-10-22T04:04:46.917Z,79.40
2017-10-22T04:07:14.621Z,79.38
2017-10-22T04:09:42.105Z,79.72
2017-10-22T04:12:09.622Z,79.67
2017-10-22T04:14:37.122Z,78.68
2017-10-22T04:17:04.626Z,79.17
2017-10-22T04:19:32.145Z,78.45
2017-10-22T04:21:59.605Z,77.96
2017-10-22T04:24:27.090Z,78.12
2017-10-22T04:26:54.594Z,77.23
2017-10-22T04:29:22.077Z,77.36
2017-10-22T04:31:49.528Z,77.05
2017-10-22T04:34:17.049Z,76.60
2017-10-22T04:36:44.521Z,76.79
2017-10-22T04:39:12.000Z,76.18
2017-10-22T04:41:39.457Z,75.35
2017-10-22T04:44:06.984Z,75.82
2017-10-22T04:46:34.447Z,74.26
2017-10-22T04:49:02.046Z,75.58
2017-10-22T04:51:29.513Z,75.46
2017-10-22T04:53:57.011Z,74.97
2017-10-22T04:56:24.514Z,75.16
2017-10-22T04:58:52.014Z,75.14
2017-10-22T05:01:19.487Z,74.38
2017-10-22T05:03:46.967Z,74.33
2017-10-22T05:06:14.441Z,74.98
2017-10-22T05:08:41.952Z,75.69
2017-10-22T05:11:09.429Z,74.69
2017-10-22T05:13:36.987Z,74.32
2017-10-22T05:16:04.468Z,73.48
2017-10-22T05:18:31.952Z,73.76
2017-10-22T05:20:59.458Z,74.76
2017-10-22T05:23:27.021Z,73.68
2017-10-22T05:25:54.529Z,73.54
2017-10-22T05:28:22.840Z,73.97
2017-10-22T05:30:50.319Z,73.88
2017-10-22T05:33:17.808Z,73.32
2017-10-22T05:35:45.297Z,73.33
2017-10-22T05:38:12.758Z,73.36
2017-10-22T05:40:40.262Z,73.04
2017-10-22T05:43:07.727Z,72.97
2017-10-22T05:45:35.244Z,73.83
2017-10-22T05:48:02.806Z,73.24
2017-10-22T05:50:30.288Z,72.96
2017-10-22T05:52:57.753Z,73.33
2017-10-22T05:55:25.284Z,73.43
2017-10-22T05:57:52.742Z,73.47
2017-10-22T06:00:20.217Z,73.86
2017-10-22T06:02:47.765Z,73.22
2017-10-22T06:05:15.333Z,74.10
2017-10-22T06:07:42.860Z,73.42
2017-10-22T06:10:10.420Z,73.45
2017-10-22T06:12:37.871Z,73.03
2017-10-22T06:15:05.486Z,73.16
2017-10-22T06:17:40.481Z,73.06
2017-10-22T06:20:08.028Z,72.25
2017-10-22T06:22:35.504Z,72.65
2017-10-22T06:25:02.987Z,72.45
2017-10-22T06:27:30.533Z,72.34
2017-10-22T06:29:58.024Z,72.92
2017-10-22T06:32:25.487Z,72.87
2017-10-22T06:34:52.966Z,72.55
2017-10-22T06:37:20.452Z,73.00
2017-10-22T06:39:47.946Z,72.53
2017-10-22T06:42:15.408Z,72.91
2017-10-22T06:44:42.889Z,72.69
2017-10-22T06:47:10.346Z,72.80
2017-10-22T06:49:37.825Z,72.50
2017-10-22T06:52:05.304Z,72.16
2017-10-22T06:54:32.803Z,71.84
2017-10-22T06:57:00.296Z,72.67
2017-10-22T06:59:27.753Z,71.83
2017-10-22T07:01:55.586Z,72.46
2017-10-22T07:04:23.119Z,71.74
2017-10-22T07:06:50.615Z,72.78
2017-10-22T07:09:18.068Z,72.62
2017-10-22T07:11:45.555Z,72.33
2017-10-22T07:14:13.060Z,72.58
2017-10-22T07:16:40.541Z,72.32
2017-10-22T07:19:08.007Z,72.24
2017-10-22T07:21:35.485Z,72.81
2017-10-22T07:24:02.953Z,73.17
2017-10-22T07:26:30.479Z,73.61
2017-10-22T07:28:58.040Z,73.17
2017-10-22T07:31:25.530Z,73.21
2017-10-22T07:33:52.997Z,73.44
2017-10-22T07:36:20.474Z,72.50
2017-10-22T07:38:48.042Z,73.02
2017-10-22T07:41:15.549Z,72.21
2017-10-22T07:43:43.003Z,73.10
2017-10-22T07:46:10.553Z,72.92
2017-10-22T07:48:38.048Z,72.97
2017-10-22T07:51:05.521Z,72.74
2017-10-22T07:53:33.027Z,71.86
2017-10-22T07:56:00.624Z,72.41
2017-10-22T07:58:28.096Z,72.36
2017-10-22T08:00:55.548Z,72.68
2017-10-22T08:03:23.049Z,72.12
2017-10-22T08:05:50.518Z,72.04
2017-10-22T08:08:18.021Z,71.27
2017-10-22T08:10:45.529Z,72.51
2017-10-22T08:13:13.017Z,72.35
2017-10-22T08:15:40.484Z,72.57
2017-10-22T08:18:07.975Z,73.13
2017-10-22T08:20:35.438Z,73.19
2017-10-22T08:23:02.937Z,73.80
2017-10-22T08:25:30.412Z,73.42
2017-10-22T08:27:57.894Z,74.00
2017-10-22T08:30:25.364Z,73.67
2017-10-22T08:32:52.941Z,73.78
2017-10-22T08:35:20.430Z,73.91
2017-10-22T08:37:47.904Z,74.13
2017-10-22T08:40:15.364Z,74.58
2017-10-22T08:42:42.839Z,74.39
2017-10-22T08:45:10.326Z,74.52
2017-10-22T08:47:37.876Z,74.65
2017-10-22T08:50:05.362Z,74.68
2017-10-22T08:52:32.850Z,74.63
2017-10-22T08:55:00.309Z,75.44
2017-10-22T08:57:27.817Z,75.22
2017-10-22T08:59:55.373Z,74.40
2017-10-22T09:02:22.933Z,74.58
2017-10-22T09:04:50.501Z,74.66
2017-10-22T09:07:17.976Z,74.39
2017-10-22T09:09:45.434Z,74.49
2017-10-22T09:12:12.973Z,74.24
2017-10-22T09:14:40.427Z,74.28
2017-10-22T09:17:07.910Z,73.94
2017-10-22T09:19:35.430Z,73.96
2017-10-22T09:22:02.918Z,73.79
2017-10-22T09:24:30.373Z,74.06
2017-10-22T09:26:57.857Z,73.57
2017-10-22T09:29:25.360Z,73.57
2017-10-22T09:31:52.817Z,72.93
2017-10-22T09:34:20.425Z,73.02
2017-10-22T09:36:47.884Z,72.57
2017-10-22T09:39:15.361Z,74.13
2017-10-22T09:41:42.829Z,73.79
2017-10-22T09:44:10.314Z,74.06
2017-10-22T09:46:37.877Z,73.78
2017-10-22T09:49:05.366Z,75.11
2017-10-22T09:51:32.857Z,73.66
2017-10-22T09:54:00.366Z,73.79
2017-10-22T09:56:27.821Z,73.60
2017-10-22T09:58:55.303Z,73.68
2017-10-22T10:01:22.761Z,73.00
2017-10-22T10:03:50.241Z,73.99
2017-10-22T10:06:17.709Z,73.31
2017-10-22T10:08:45.201Z,73.56
2017-10-22T10:11:12.788Z,73.26
2017-10-22T10:13:40.305Z,73.48
2017-10-22T10:16:07.766Z,73.07
2017-10-22T10:18:35.310Z,74.67
2017-10-22T10:21:02.777Z,74.90
2017-10-22T10:23:30.323Z,74.18
2017-10-22T10:25:57.873Z,75.44
2017-10-22T10:28:25.349Z,75.75
2017-10-22T10:30:52.817Z,76.56
2017-10-22T10:33:20.301Z,76.53
2017-10-22T10:35:47.756Z,74.73
2017-10-22T10:38:15.245Z,74.26
2017-10-22T10:40:42.707Z,75.55
2017-10-22T10:43:10.282Z,75.58
2017-10-22T10:45:37.745Z,75.39
2017-10-22T10:48:05.225Z,74.43
2017-10-22T10:50:32.684Z,73.75
2017-10-22T10:53:00.204Z,73.86
2017-10-22T10:55:27.765Z,74.24
2017-10-22T10:57:55.380Z,73.75
2017-10-22T11:00:22.859Z,75.98
2017-10-22T11:02:50.325Z,77.22
2017-10-22T11:05:17.950Z,77.40
2017-10-22T11:07:45.402Z,77.19
2017-10-22T11:10:12.926Z,77.00
2017-10-22T11:12:40.401Z,76.19
2017-10-22T11:15:07.934Z,75.09
2017-10-22T11:17:35.493Z,73.89
2017-10-22T11:20:03.058Z,74.36
2017-10-22T11:22:30.613Z,74.29
2017-10-22T11:24:58.095Z,74.17
2017-10-22T11:27:25.553Z,74.62
2017-10-22T11:29:53.037Z,75.23
2017-10-22T11:32:20.492Z,76.57
2017-10-22T11:34:47.983Z,76.74
2017-10-22T11:37:15.461Z,76.03
2017-10-22T11:39:42.937Z,75.24
2017-10-22T11:42:10.393Z,74.58
2017-10-22T11:44:37.894Z,74.26
2017-10-22T11:47:05.349Z,73.80
2017-10-22T11:49:32.822Z,72.62
2017-10-22T11:52:00.285Z,72.74
2017-10-22T11:54:27.793Z,71.23
2017-10-22T11:56:55.253Z,71.89
2017-10-22T11:59:22.764Z,72.04
2017-10-22T12:01:50.248Z,71.60
2017-10-22T12:04:17.741Z,70.29
2017-10-22T12:06:45.201Z,70.10
2017-10-22T12:09:12.730Z,69.57
2017-10-22T12:11:40.193Z,69.93
2017-10-22T12:14:07.714Z,67.67
2017-10-22T12:16:35.274Z,67.69
2017-10-22T12:19:02.785Z,66.83
2017-10-22T12:21:30.245Z,67.28
2017-10-22T12:23:57.717Z,67.39
2017-10-22T12:26:25.206Z,67.46
2017-10-22T12:28:52.656Z,67.55
2017-10-22T12:31:20.255Z,68.17
2017-10-22T12:33:47.726Z,69.80
2017-10-22T12:36:15.200Z,69.97
2017-10-22T12:38:42.671Z,70.01
2017-10-22T12:41:10.190Z,69.35
2017-10-22T12:43:37.702Z,70.40
2017-10-22T12:46:05.198Z,69.91
2017-10-22T12:48:32.681Z,67.96
2017-10-22T12:51:00.157Z,69.21
2017-10-22T12:53:27.729Z,67.94
2017-10-22T12:55:55.217Z,67.46
2017-10-22T12:58:22.740Z,66.75
2017-10-22T13:00:50.247Z,67.99
2017-10-22T13:03:17.710Z,68.88
2017-10-22T13:05:45.195Z,70.17
2017-10-22T13:08:12.659Z,69.46
2017-10-22T13:10:40.133Z,68.98
2017-10-22T13:13:07.611Z,69.43
2017-10-22T13:15:35.068Z,69.36
2017-10-22T13:18:02.560Z,68.99
2017-10-22T13:20:30.057Z,68.74
2017-10-22T13:22:57.551Z,69.82
2017-10-22T13:25:25.019Z,69.70
2017-10-22T13:27:52.562Z,70.42
2017-10-22T13:30:20.027Z,68.99
2017-10-22T13:32:47.507Z,69.36
2017-10-22T13:35:14.984Z,69.77
2017-10-22T13:37:42.460Z,70.73
2017-10-22T13:40:09.909Z,70.68
2017-10-22T13:42:37.433Z,71.69
2017-10-22T13:45:04.910Z,72.74
2017-10-22T13:47:32.380Z,72.15
2017-10-22T13:49:59.901Z,71.78
2017-10-22T13:52:27.352Z,71.46
2017-10-22T13:54:54.862Z,71.33
2017-10-22T13:57:22.321Z,71.59
2017-10-22T13:59:49.877Z,71.37
2017-10-22T14:02:17.331Z,72.92
2017-10-22T14:04:44.819Z,73.20
2017-10-22T14:07:12.388Z,73.41
2017-10-22T14:09:39.900Z,74.91
2017-10-22T14:12:07.362Z,74.81
2017-10-22T14:14:34.913Z,74.64
2017-10-22T14:17:02.494Z,74.76
2017-10-22T14:19:29.965Z,74.80
2017-10-22T14:21:57.447Z,74.52
2017-10-22T14:24:24.915Z,74.78
2017-10-22T14:26:52.397Z,74.40
2017-10-22T14:29:19.957Z,74.92
2017-10-22T14:31:47.521Z,75.90
2017-10-22T14:34:14.986Z,76.38
2017-10-22T14:36:42.469Z,78.15
2017-10-22T14:39:09.924Z,79.43
2017-10-22T14:41:37.402Z,79.96
2017-10-22T14:44:04.870Z,78.75
2017-10-22T14:46:32.340Z,77.89
2017-10-22T14:48:59.801Z,77.44
2017-10-22T14:51:27.376Z,76.52
2017-10-22T14:53:54.828Z,77.20
2017-10-22T14:56:22.306Z,77.35
2017-10-22T14:58:49.839Z,76.57
2017-10-22T15:01:17.338Z,76.47
2017-10-22T15:03:44.810Z,76.01
2017-10-22T15:06:12.316Z,76.69
2017-10-22T15:08:39.786Z,76.02
2017-10-22T15:11:07.240Z,75.68
2017-10-22T15:13:34.738Z,75.77
2017-10-22T15:16:02.205Z,75.86
2017-10-22T15:18:29.716Z,74.68
2017-10-22T15:20:57.204Z,74.52
2017-10-22T15:23:24.682Z,73.89
2017-10-22T15:25:52.156Z,74.01
2017-10-22T15:28:19.645Z,73.54
2017-10-22T15:30:47.149Z,73.25
2017-10-22T15:33:14.621Z,73.28
2017-10-22T15:35:42.085Z,72.77
2017-10-22T15:38:09.577Z,73.04
2017-10-22T15:40:37.054Z,73.23
2017-10-22T15:43:04.553Z,73.60
2017-10-22T15:45:32.029Z,72.95
2017-10-22T15:47:59.517Z,73.52
2017-10-22T15:50:27.050Z,73.21
2017-10-22T15:52:54.552Z,73.00
2017-10-22T15:55:22.009Z,73.10
2017-10-22T15:57:49.485Z,72.76
2017-10-22T16:00:16.957Z,72.77
2017-10-22T16:02:44.447Z,73.13
2017-10-22T16:05:11.977Z,73.36
2017-10-22T16:07:39.477Z,73.39
2017-10-22T16:10:06.940Z,73.89
2017-10-22T16:12:34.421Z,74.03
2017-10-22T16:15:01.922Z,75.20
2017-10-22T16:17:29.402Z,74.30
2017-10-22T16:19:56.886Z,74.01
2017-10-22T16:22:24.361Z,74.15
2017-10-22T16:24:51.822Z,74.03
2017-10-22T16:27:19.301Z,74.44
2017-10-22T16:29:46.860Z,75.47
2017-10-22T16:32:14.329Z,74.63
2017-10-22T16:34:41.826Z,74.92
2017-10-22T16:37:09.283Z,75.82
2017-10-22T16:39:36.770Z,76.05
2017-10-22T16:42:04.229Z,75.99
2017-10-22T16:44:31.713Z,75.05
2017-10-22T16:46:59.168Z,75.84
2017-10-22T16:49:26.670Z,75.23
2017-10-22T16:51:54.193Z,76.04
2017-10-22T16:54:21.660Z,75.25
2017-10-22T16:56:49.130Z,76.01
2017-10-22T16:59:16.629Z,77.88
2017-10-22T17:01:44.118Z,77.92
2017-10-22T17:04:11.661Z,77.52
2017-10-22T17:06:39.220Z,77.78
2017-10-22T17:09:06.711Z,78.81
2017-10-22T17:11:34.237Z,77.51
2017-10-22T17:14:01.729Z,76.27
2017-10-22T17:16:29.201Z,76.75
2017-10-22T17:18:56.705Z,77.64
2017-10-22T17:21:24.175Z,78.88
2017-10-22T17:23:51.733Z,78.11
2017-10-22T17:26:19.189Z,77.40
2017-10-22T17:28:46.659Z,78.13
2017-10-22T17:31:14.120Z,76.79
2017-10-22T17:33:41.605Z,76.73
2017-10-22T17:36:09.069Z,76.63
2017-10-22T17:38:36.551Z,75.31
2017-10-22T17:41:04.042Z,75.32
2017-10-22T17:43:31.524Z,75.31
2017-10-22T17:45:59.042Z,75.70
2017-10-22T17:48:26.543Z,76.24
2017-10-22T17:50:54.002Z,76.03
2017-10-22T17:53:21.483Z,75.40
2017-10-22T17:55:48.941Z,74.76
2017-10-22T17:58:16.526Z,74.66
2017-10-22T18:00:43.993Z,74.68
2017-10-22T18:03:11.542Z,75.36
2017-10-22T18:05:39.042Z,74.57
2017-10-22T18:08:06.488Z,74.04
2017-10-22T18:10:33.965Z,72.96
2017-10-22T18:13:01.476Z,74.04
2017-10-22T18:15:28.949Z,74.21
2017-10-22T18:17:56.477Z,73.63
2017-10-22T18:20:24.042Z,72.92
2017-10-22T18:22:51.493Z,72.81
2017-10-22T18:25:19.104Z,73.07
2017-10-22T18:27:46.622Z,72.36
2017-10-22T18:30:14.106Z,73.03
2017-10-22T18:32:41.561Z,73.89
2017-10-22T18:35:09.055Z,73.62
2017-10-22T18:37:36.516Z,72.63
2017-10-22T18:40:03.988Z,72.06
2017-10-22T18:42:31.438Z,73.00
2017-10-22T18:44:58.937Z,72.87
2017-10-22T18:47:26.401Z,73.03
2017-10-22T18:49:53.934Z,73.44
2017-10-22T18:52:21.413Z,72.35
2017-10-22T18:54:48.945Z,72.56
2017-10-22T18:57:16.402Z,73.06
2017-10-22T18:59:43.905Z,73.04
2017-10-22T19:02:11.365Z,73.48
2017-10-22T19:04:38.845Z,73.33
2017-10-22T19:07:06.345Z,74.07
2017-10-22T19:09:33.889Z,73.24
2017-10-22T19:12:01.370Z,73.35
2017-10-22T19:14:28.846Z,74.09
2017-10-22T19:16:56.356Z,73.96
2017-10-22T19:19:23.843Z,74.07
2017-10-22T19:21:51.306Z,74.30
2017-10-22T19:24:18.853Z,74.33
2017-10-22T19:26:46.321Z,74.38
2017-10-22T19:29:13.808Z,75.17
2017-10-22T19:31:41.309Z,75.07
2017-10-22T19:34:08.789Z,74.91
2017-10-22T19:36:36.263Z,75.03
2017-10-22T19:39:03.738Z,75.14
2017-10-22T19:41:31.221Z,75.91
2017-10-22T19:43:58.698Z,77.06
2017-10-22T19:46:26.176Z,77.12
2017-10-22T19:48:53.705Z,77.00
2017-10-22T19:51:21.189Z,77.29
2017-10-22T19:53:48.647Z,78.11
2017-10-22T19:56:16.120Z,78.51
2017-10-22T19:58:43.594Z,78.48
2017-10-22T20:01:11.443Z,78.48
2017-10-22T20:03:38.914Z,78.94
2017-10-22T20:06:06.434Z,79.58
2017-10-22T20:08:34.012Z,79.51
2017-10-22T20:11:01.538Z,80.45
2017-10-22T20:13:29.006Z,79.96
2017-10-22T20:15:56.591Z,79.60
2017-10-22T20:18:24.056Z,79.60
2017-10-22T20:20:51.572Z,80.60
2017-10-22T20:23:19.048Z,81.10
2017-10-22T20:25:46.558Z,80.41
2017-10-22T20:28:14.021Z,81.16
2017-10-22T20:30:41.584Z,80.51
2017-10-22T20:33:09.057Z,80.11
2017-10-22T20:35:36.608Z,79.49
2017-10-22T20:38:04.165Z,79.11
2017-10-22T20:40:31.647Z,79.17
2017-10-22T20:42:59.105Z,78.77
2017-10-22T20:45:26.670Z,79.41
2017-10-22T20:47:54.138Z,79.44
2017-10-22T20:50:21.621Z,79.45
2017-10-22T20:52:49.281Z,79.38
2017-10-22T20:55:17.439Z,80.01
2017-10-22T20:57:45.569Z,79.07
2017-10-22T21:00:13.266Z,79.43
2017-10-22T21:02:41.151Z,79.51
2017-10-22T21:05:08.677Z,79.37
2017-10-22T21:07:36.294Z,79.94
2017-10-22T21:10:03.774Z,79.87
2017-10-22T21:12:31.553Z,80.05
2017-10-22T21:14:59.249Z,80.25
2017-10-22T21:17:26.792Z,80.67
2017-10-22T21:19:54.310Z,82.04
2017-10-22T21:22:22.035Z,81.62
2017-10-22T21:24:50.248Z,81.67
2017-10-22T21:27:17.956Z,81.91
2017-10-22T21:29:45.462Z,82.52
2017-10-22T21:32:13.257Z,82.58
2017-10-22T21:34:40.723Z,83.15
2017-10-22T21:37:09.826Z,83.17
2017-10-22T21:39:37.431Z,82.88
2017-10-22T21:42:05.341Z,82.90
2017-10-22T21:44:32.851Z,83.11
2017-10-22T21:47:01.082Z,83.12
2017-10-22T21:49:29.973Z,83.18
2017-10-22T21:51:58.121Z,83.16
2017-10-22T21:54:25.638Z,82.84
2017-10-22T21:56:53.789Z,82.86
2017-10-22T21:59:21.526Z,82.49
2017-10-22T22:01:49.005Z,81.51
2017-10-22T22:04:16.464Z,81.00
2017-10-22T22:06:44.203Z,80.68
2017-10-22T22:09:11.681Z,81.06
2017-10-22T22:11:39.316Z,80.17
2017-10-22T22:14:06.911Z,80.53
2017-10-22T22:16:35.536Z,81.04
2017-10-22T22:19:03.017Z,80.95
2017-10-22T22:21:30.535Z,80.76
2017-10-22T22:23:57.984Z,80.90
2017-10-22T22:26:25.461Z,80.99
2017-10-22T22:28:52.937Z,81.05
2017-10-22T22:31:20.414Z,81.26
2017-10-22T22:33:47.877Z,80.94
2017-10-22T22:36:15.368Z,80.75
2017-10-22T22:38:42.821Z,81.00
2017-10-22T22:41:10.509Z,80.97
2017-10-22T22:43:38.067Z,80.97
2017-10-22T22:46:05.545Z,80.94
2017-10-22T22:48:33.013Z,80.33
2017-10-22T22:51:00.510Z,79.78
2017-10-22T22:53:27.991Z,79.60
2017-10-22T22:55:55.481Z,79.29
2017-10-22T22:58:23.013Z,79.80
2017-10-22T23:00:50.479Z,79.67
2017-10-22T23:03:17.967Z,80.12
2017-10-22T23:05:45.426Z,79.52
2017-10-22T23:08:12.896Z,79.59
2017-10-22T23:10:40.353Z,79.16
2017-10-22T23:13:07.829Z,79.43
2017-10-22T23:15:35.286Z,80.06
2017-10-22T23:18:02.894Z,79.09
2017-10-22T23:20:30.344Z,78.84
2017-10-22T23:22:57.884Z,79.14
2017-10-22T23:25:25.335Z,78.65
2017-10-22T23:27:52.820Z,78.70
2017-10-22T23:30:20.356Z,78.72
2017-10-22T23:32:47.845Z,77.71
2017-10-22T23:35:15.306Z,78.53
2017-10-22T23:37:42.784Z,77.68
2017-10-22T23:40:10.242Z,77.87
2017-10-22T23:42:37.741Z,78.08
2017-10-22T23:45:05.208Z,78.05
2017-10-22T23:47:32.680Z,77.84
2017-10-22T23:50:00.173Z,77.65
2017-10-22T23:52:27.667Z,77.91
2017-10-22T23:54:55.129Z,77.61
2017-10-22T23:57:22.655Z,77.86
2017-10-22T23:59:50.110Z,77.46
